Time;durP1;ratioP1;P1;durP2;ratioP2;P2;SDS_P1;SDS_P2;PMS_P1;PMS_P2;Temp;Humidity;BMP_temperature;BMP_pressure;BME280_temperature;BME280_humidity;BME280_pressure;Samples;Min_cycle;Max_cycle;Signal;HPM_P1;HPM_P2
2021/03/31 00:02:00;;;;;;;;;;;27.50;19.20;;;;;;5053493;28;20357;-70
2021/03/31 00:04:26;;;;;;;;;;;27.50;20.20;;;;;;5047589;28;20242;-71
2021/03/31 00:06:52;;;;;;;;;;;27.30;20.70;;;;;;5054513;28;19912;-71
2021/03/31 00:09:18;;;;;;;;;;;27.30;20.60;;;;;;5054924;28;19920;-74
2021/03/31 00:11:44;;;;;;;;;;;27.30;20.80;;;;;;5059417;28;19936;-74
2021/03/31 00:14:12;;;;;;;;;;;27.30;21.40;;;;;;5055727;28;19913;-71
2021/03/31 00:16:38;;;;;;;;;;;27.40;21.00;;;;;;5054101;28;19965;-71
2021/03/31 00:19:04;;;;;;;;;;;27.20;22.20;;;;;;5053454;28;19920;-72
2021/03/31 00:21:30;;;;;;;;;;;27.00;22.20;;;;;;5033699;28;19916;-72
2021/03/31 00:23:56;;;;;;;;;;;27.10;21.70;;;;;;5054867;28;19920;-72
2021/03/31 00:26:22;;;;;;;;;;;27.10;22.70;;;;;;5052417;28;20007;-72
2021/03/31 00:28:48;;;;;;;;;;;26.90;22.60;;;;;;5055091;28;19917;-71
2021/03/31 00:31:14;;;;;;;;;;;26.90;22.20;;;;;;5055337;28;19919;-72
2021/03/31 00:33:40;;;;;;;;;;;26.60;22.50;;;;;;5055685;28;19927;-72
2021/03/31 00:36:07;;;;;;;;;;;26.30;23.10;;;;;;5055408;28;20009;-72
2021/03/31 00:38:33;;;;;;;;;;;26.10;22.60;;;;;;5037267;28;19940;-72
2021/03/31 00:41:00;;;;;;;;;;;26.30;22.50;;;;;;5056208;28;19963;-72
2021/03/31 00:43:26;;;;;;;;;;;26.00;23.20;;;;;;5053374;28;20246;-72
2021/03/31 00:45:52;;;;;;;;;;;25.70;23.60;;;;;;5056764;28;20279;-72
2021/03/31 00:48:18;;;;;;;;;;;25.70;23.90;;;;;;5053690;28;19908;-72
2021/03/31 00:51:03;;;;;;;;;;;25.70;24.60;;;;;;5054831;28;19956;-72
2021/03/31 00:53:40;;;;;;;;;;;25.60;24.10;;;;;;5052649;28;19917;-72
2021/03/31 00:56:06;;;;;;;;;;;25.60;24.00;;;;;;5048956;28;21155;-71
2021/03/31 00:58:32;;;;;;;;;;;25.40;23.60;;;;;;5052824;28;19924;-72
2021/03/31 01:00:58;;;;;;;;;;;25.40;23.80;;;;;;5052963;28;19917;-70
2021/03/31 01:03:25;;;;;;;;;;;25.50;23.40;;;;;;5053462;28;20374;-71
2021/03/31 01:05:51;;;;;;;;;;;25.40;22.70;;;;;;5052521;28;19909;-73
2021/03/31 01:08:18;;;;;;;;;;;25.30;23.20;;;;;;5051414;28;20009;-71
2021/03/31 01:10:47;;;;;;;;;;;25.40;24.20;;;;;;5052711;28;19931;-71
2021/03/31 01:13:32;;;;;;;;;;;25.20;23.00;;;;;;5053848;28;19908;-71
2021/03/31 01:16:01;;;;;;;;;;;25.20;22.90;;;;;;5051730;28;20304;-70
2021/03/31 01:18:47;;;;;;;;;;;25.20;23.30;;;;;;5053026;28;20006;-70
2021/03/31 01:21:13;;;;;;;;;;;25.00;22.30;;;;;;5052501;28;19970;-70
2021/03/31 01:23:57;;;;;;;;;;;25.00;23.30;;;;;;5055986;28;20269;-70
2021/03/31 01:26:35;;;;;;;;;;;25.20;23.60;;;;;;5055914;28;19920;-70
2021/03/31 01:29:21;;;;;;;;;;;25.30;23.90;;;;;;5055700;28;19923;-71
2021/03/31 01:31:58;;;;;;;;;;;25.20;24.10;;;;;;5052976;28;20021;-71
2021/03/31 01:34:29;;;;;;;;;;;25.20;24.40;;;;;;5054534;28;19909;-70
2021/03/31 01:36:56;;;;;;;;;;;25.20;24.10;;;;;;5054432;28;20369;-71
2021/03/31 01:39:23;;;;;;;;;;;25.30;23.50;;;;;;5053347;28;19913;-70
2021/03/31 01:41:50;;;;;;;;;;;25.30;23.70;;;;;;5035407;28;19913;-71
2021/03/31 01:44:18;;;;;;;;;;;25.00;24.00;;;;;;5050365;28;19954;-71
2021/03/31 01:46:48;;;;;;;;;;;24.90;24.30;;;;;;5053679;28;19991;-71
2021/03/31 01:49:15;;;;;;;;;;;24.90;24.10;;;;;;5053450;28;19923;-70
2021/03/31 01:51:42;;;;;;;;;;;24.80;24.50;;;;;;5055802;28;19954;-73
2021/03/31 01:54:08;;;;;;;;;;;24.80;24.20;;;;;;5055606;28;19999;-70
2021/03/31 01:56:35;;;;;;;;;;;24.70;24.50;;;;;;5038491;28;19913;-71
2021/03/31 01:59:01;;;;;;;;;;;24.60;24.80;;;;;;5037272;28;19909;-75
2021/03/31 02:01:28;;;;;;;;;;;24.50;24.70;;;;;;5052989;28;20047;-70
2021/03/31 02:03:55;;;;;;;;;;;24.50;24.90;;;;;;5050684;28;19909;-71
2021/03/31 02:06:21;;;;;;;;;;;24.40;24.80;;;;;;5052784;28;20338;-70
2021/03/31 02:08:48;;;;;;;;;;;24.30;24.60;;;;;;5045647;28;19912;-70
2021/03/31 02:11:15;;;;;;;;;;;24.20;24.70;;;;;;5049442;28;19920;-70
2021/03/31 02:13:41;;;;;;;;;;;24.00;25.00;;;;;;5051795;28;19912;-70
2021/03/31 02:16:08;;;;;;;;;;;24.00;25.00;;;;;;5054153;28;20334;-69
2021/03/31 02:18:35;;;;;;;;;;;23.90;24.80;;;;;;5048794;28;19962;-70
2021/03/31 02:21:02;;;;;;;;;;;23.70;25.10;;;;;;5048903;28;20385;-71
2021/03/31 02:23:28;;;;;;;;;;;23.40;25.30;;;;;;5052540;28;19916;-70
2021/03/31 02:25:54;;;;;;;;;;;23.20;25.60;;;;;;5053786;28;19991;-71
2021/03/31 02:28:20;;;;;;;;;;;22.90;25.90;;;;;;5050348;28;19924;-70
2021/03/31 02:30:47;;;;;;;;;;;22.80;26.10;;;;;;5054888;28;19923;-70
2021/03/31 02:33:14;;;;;;;;;;;22.60;26.20;;;;;;5052690;28;20011;-72
2021/03/31 02:35:41;;;;;;;;;;;22.40;26.40;;;;;;5052208;28;19913;-71
2021/03/31 02:38:09;;;;;;;;;;;22.20;26.50;;;;;;5033983;28;19909;-71
2021/03/31 02:40:36;;;;;;;;;;;22.10;26.80;;;;;;5048264;28;19909;-71
2021/03/31 02:43:04;;;;;;;;;;;22.10;26.80;;;;;;5049589;28;19908;-72
2021/03/31 02:45:30;;;;;;;;;;;22.10;26.70;;;;;;5050799;28;19909;-72
2021/03/31 02:47:58;;;;;;;;;;;21.90;26.60;;;;;;5047794;28;19912;-71
2021/03/31 02:50:25;;;;;;;;;;;21.80;26.40;;;;;;5033705;28;19966;-72
2021/03/31 02:52:52;;;;;;;;;;;21.70;26.60;;;;;;5053231;28;19919;-72
2021/03/31 02:55:18;;;;;;;;;;;21.50;26.80;;;;;;5051870;28;19909;-73
2021/03/31 02:57:44;;;;;;;;;;;21.40;26.80;;;;;;5053717;28;19912;-72
2021/03/31 03:00:12;;;;;;;;;;;21.30;26.90;;;;;;5051632;28;19909;-72
2021/03/31 03:02:38;;;;;;;;;;;21.20;27.10;;;;;;5045910;28;19912;-72
2021/03/31 03:05:05;;;;;;;;;;;21.10;27.30;;;;;;5049585;28;19915;-72
2021/03/31 03:07:33;;;;;;;;;;;21.00;27.40;;;;;;5054020;28;19908;-71
2021/03/31 03:09:59;;;;;;;;;;;20.90;27.50;;;;;;5052420;28;19977;-72
2021/03/31 03:12:25;;;;;;;;;;;20.70;27.60;;;;;;5051710;28;19908;-72
2021/03/31 03:14:52;;;;;;;;;;;20.60;27.70;;;;;;5052801;28;20012;-74
2021/03/31 03:17:19;;;;;;;;;;;20.50;27.80;;;;;;5036257;28;20006;-72
2021/03/31 03:19:45;;;;;;;;;;;20.40;27.60;;;;;;5051757;28;19909;-72
2021/03/31 03:22:12;;;;;;;;;;;20.20;27.90;;;;;;5050875;28;19955;-73
2021/03/31 03:24:38;;;;;;;;;;;20.20;28.00;;;;;;5051667;28;19909;-72
2021/03/31 03:27:05;;;;;;;;;;;20.10;28.10;;;;;;5052384;28;20327;-72
2021/03/31 03:29:31;;;;;;;;;;;20.10;28.20;;;;;;5051226;28;19920;-73
2021/03/31 03:31:58;;;;;;;;;;;20.10;28.20;;;;;;5053223;28;19916;-72
2021/03/31 03:34:24;;;;;;;;;;;20.00;28.50;;;;;;5053294;28;19912;-72
2021/03/31 03:36:50;;;;;;;;;;;19.80;28.30;;;;;;5050554;28;20293;-72
2021/03/31 03:39:18;;;;;;;;;;;19.60;28.60;;;;;;5051238;28;19947;-73
2021/03/31 03:41:44;;;;;;;;;;;19.50;28.70;;;;;;5051914;28;19913;-73
2021/03/31 03:44:10;;;;;;;;;;;19.60;29.10;;;;;;5052310;28;19995;-71
2021/03/31 03:46:37;;;;;;;;;;;19.50;29.00;;;;;;5053823;28;20341;-73
2021/03/31 03:49:04;;;;;;;;;;;19.40;29.20;;;;;;5056079;28;19963;-73
2021/03/31 03:51:30;;;;;;;;;;;19.30;29.00;;;;;;5057299;28;19913;-73
2021/03/31 03:53:56;;;;;;;;;;;19.30;29.60;;;;;;5052285;28;19995;-71
2021/03/31 03:56:23;;;;;;;;;;;19.20;29.50;;;;;;5053918;28;20335;-71
2021/03/31 03:58:50;;;;;;;;;;;19.10;29.60;;;;;;5053660;28;19913;-73
2021/03/31 04:01:16;;;;;;;;;;;19.00;29.50;;;;;;5051898;28;19908;-73
2021/03/31 04:03:42;;;;;;;;;;;18.90;30.10;;;;;;5052546;28;19959;-72
2021/03/31 04:06:09;;;;;;;;;;;19.00;30.10;;;;;;5052658;28;19912;-72
2021/03/31 04:08:36;;;;;;;;;;;19.00;30.00;;;;;;5053985;28;19904;-72
2021/03/31 04:11:02;;;;;;;;;;;18.90;30.40;;;;;;5052992;28;19909;-71
2021/03/31 04:13:30;;;;;;;;;;;18.90;30.50;;;;;;5045407;28;20370;-72
2021/03/31 04:16:07;;;;;;;;;;;18.80;30.90;;;;;;5048979;28;19995;-71
2021/03/31 04:18:34;;;;;;;;;;;18.80;30.50;;;;;;5046519;28;19915;-71
2021/03/31 04:21:01;;;;;;;;;;;18.70;30.50;;;;;;5047702;28;20266;-71
2021/03/31 04:23:27;;;;;;;;;;;18.70;30.90;;;;;;5046971;28;20027;-72
2021/03/31 04:25:57;;;;;;;;;;;18.70;30.70;;;;;;5033176;28;20416;-72
2021/03/31 04:28:23;;;;;;;;;;;18.60;30.60;;;;;;5035398;28;20300;-72
2021/03/31 04:30:50;;;;;;;;;;;18.60;30.90;;;;;;5049624;28;19925;-72
2021/03/31 04:33:16;;;;;;;;;;;18.60;31.00;;;;;;5031099;28;19913;-72
2021/03/31 04:35:42;;;;;;;;;;;18.50;30.90;;;;;;5048820;28;19923;-72
2021/03/31 04:38:12;;;;;;;;;;;18.60;31.00;;;;;;5051715;28;19917;-72
2021/03/31 04:40:57;;;;;;;;;;;18.50;30.90;;;;;;5054001;28;19970;-72
2021/03/31 04:43:25;;;;;;;;;;;18.40;30.70;;;;;;5053591;28;19939;-72
2021/03/31 04:45:55;;;;;;;;;;;18.40;30.60;;;;;;5054762;28;20331;-71
2021/03/31 04:48:21;;;;;;;;;;;18.30;30.60;;;;;;5053370;28;19920;-72
2021/03/31 04:50:47;;;;;;;;;;;18.30;30.60;;;;;;5054648;28;19972;-71
2021/03/31 04:53:13;;;;;;;;;;;18.30;30.60;;;;;;5055065;28;20041;-71
2021/03/31 04:55:39;;;;;;;;;;;18.20;30.90;;;;;;5051708;28;19912;-71
2021/03/31 04:58:05;;;;;;;;;;;18.10;30.90;;;;;;5054040;28;19915;-72
2021/03/31 05:00:32;;;;;;;;;;;18.10;31.00;;;;;;5053645;28;19958;-71
2021/03/31 05:02:58;;;;;;;;;;;17.80;30.90;;;;;;5052636;28;19920;-71
2021/03/31 05:05:24;;;;;;;;;;;17.80;31.50;;;;;;5051363;28;20335;-71
2021/03/31 05:07:50;;;;;;;;;;;17.70;31.10;;;;;;5051943;28;19935;-71
2021/03/31 05:10:16;;;;;;;;;;;17.70;31.50;;;;;;5048916;28;19982;-71
2021/03/31 05:12:42;;;;;;;;;;;17.70;31.70;;;;;;5048406;28;19917;-71
2021/03/31 05:15:08;;;;;;;;;;;17.50;31.60;;;;;;5053076;28;19947;-71
2021/03/31 05:17:34;;;;;;;;;;;17.50;31.70;;;;;;5048160;28;19935;-71
2021/03/31 05:20:02;;;;;;;;;;;17.50;31.60;;;;;;5049207;28;19921;-71
2021/03/31 05:22:28;;;;;;;;;;;17.40;31.30;;;;;;5052348;28;19909;-71
2021/03/31 05:24:55;;;;;;;;;;;17.40;31.30;;;;;;5055002;28;19954;-71
2021/03/31 05:27:21;;;;;;;;;;;17.40;31.40;;;;;;5054730;28;20011;-71
2021/03/31 05:29:47;;;;;;;;;;;17.50;31.30;;;;;;5053513;28;19916;-71
2021/03/31 05:32:14;;;;;;;;;;;17.40;31.20;;;;;;5053095;28;20440;-71
2021/03/31 05:34:40;;;;;;;;;;;17.40;31.30;;;;;;5056147;28;19948;-71
2021/03/31 05:37:06;;;;;;;;;;;17.40;31.20;;;;;;5055595;28;20013;-71
2021/03/31 05:39:32;;;;;;;;;;;17.40;31.30;;;;;;5040101;28;19955;-72
2021/03/31 05:41:58;;;;;;;;;;;17.30;31.40;;;;;;5057517;28;19908;-72
2021/03/31 05:44:24;;;;;;;;;;;17.20;31.50;;;;;;5057684;28;20258;-71
2021/03/31 05:46:51;;;;;;;;;;;16.90;31.60;;;;;;5058433;28;19973;-72
2021/03/31 05:49:18;;;;;;;;;;;16.80;32.00;;;;;;5055335;28;20337;-72
2021/03/31 05:51:44;;;;;;;;;;;16.70;32.10;;;;;;5056185;28;20365;-72
2021/03/31 05:54:10;;;;;;;;;;;16.70;32.10;;;;;;5037629;28;19923;-71
2021/03/31 05:56:37;;;;;;;;;;;16.70;32.60;;;;;;5053518;28;19916;-71
2021/03/31 05:59:06;;;;;;;;;;;16.60;32.00;;;;;;5056323;28;19919;-71
2021/03/31 06:01:32;;;;;;;;;;;16.70;32.50;;;;;;5053939;28;19909;-71
2021/03/31 06:03:58;;;;;;;;;;;16.80;32.50;;;;;;5055401;28;19915;-71
2021/03/31 06:06:25;;;;;;;;;;;16.60;32.20;;;;;;5055699;28;20003;-70
2021/03/31 06:08:52;;;;;;;;;;;16.70;33.00;;;;;;5050246;28;19912;-72
2021/03/31 06:11:20;;;;;;;;;;;16.80;32.20;;;;;;5052937;28;19928;-72
2021/03/31 06:13:49;;;;;;;;;;;16.70;32.20;;;;;;5054619;28;19974;-71
2021/03/31 06:16:37;;;;;;;;;;;16.70;32.20;;;;;;5054535;28;19986;-71
2021/03/31 06:19:19;;;;;;;;;;;16.70;32.40;;;;;;5054494;28;19915;-71
2021/03/31 06:22:04;;;;;;;;;;;16.60;32.40;;;;;;5054948;28;19908;-71
2021/03/31 06:24:33;;;;;;;;;;;16.50;32.10;;;;;;5055723;28;20285;-71
2021/03/31 06:26:59;;;;;;;;;;;16.50;32.20;;;;;;5055503;28;19913;-71
2021/03/31 06:29:35;;;;;;;;;;;16.50;32.10;;;;;;5053992;28;19913;-71
2021/03/31 06:32:12;;;;;;;;;;;16.40;32.20;;;;;;5036384;28;20509;-72
2021/03/31 06:34:49;;;;;;;;;;;16.50;32.30;;;;;;5054640;28;19909;-71
2021/03/31 06:37:22;;;;;;;;;;;16.50;32.10;;;;;;5051015;28;19920;-71
2021/03/31 06:39:51;;;;;;;;;;;16.50;32.10;;;;;;5052765;28;20326;-71
2021/03/31 06:42:19;;;;;;;;;;;16.50;32.30;;;;;;5054578;28;19954;-71
2021/03/31 06:47:26;;;;;;;;;;;16.40;32.50;;;;;;5050247;28;19971;-71
2021/03/31 06:49:52;;;;;;;;;;;16.20;32.20;;;;;;5050191;28;19916;-72
2021/03/31 06:52:18;;;;;;;;;;;16.00;32.50;;;;;;5053064;28;19927;-72
2021/03/31 06:54:45;;;;;;;;;;;16.00;33.00;;;;;;5045516;28;19909;-72
2021/03/31 06:57:12;;;;;;;;;;;16.00;33.00;;;;;;5052947;28;20334;-72
2021/03/31 06:59:38;;;;;;;;;;;16.00;33.10;;;;;;5053496;28;19927;-72
2021/03/31 07:02:05;;;;;;;;;;;16.10;32.80;;;;;;5050538;28;19905;-72
2021/03/31 07:04:32;;;;;;;;;;;16.20;32.60;;;;;;5054350;28;19912;-72
2021/03/31 07:07:16;;;;;;;;;;;16.10;32.50;;;;;;5034314;28;19912;-72
2021/03/31 07:09:43;;;;;;;;;;;16.10;32.50;;;;;;5053928;28;19913;-72
2021/03/31 07:12:18;;;;;;;;;;;16.10;32.90;;;;;;5052158;28;19952;-71
2021/03/31 07:14:48;;;;;;;;;;;16.10;32.80;;;;;;5051943;28;20273;-72
2021/03/31 07:17:21;;;;;;;;;;;16.00;32.70;;;;;;5052763;28;20007;-72
2021/03/31 07:19:47;;;;;;;;;;;16.00;32.90;;;;;;5051737;28;19916;-72
2021/03/31 07:22:14;;;;;;;;;;;15.90;32.90;;;;;;5050964;28;19916;-72
2021/03/31 07:24:40;;;;;;;;;;;15.90;32.90;;;;;;5049631;28;20239;-71
2021/03/31 07:27:07;;;;;;;;;;;15.90;33.20;;;;;;5052338;28;19936;-72
2021/03/31 07:29:34;;;;;;;;;;;15.90;33.70;;;;;;5054416;28;20265;-72
2021/03/31 07:32:00;;;;;;;;;;;15.80;33.10;;;;;;5052118;28;20009;-72
2021/03/31 07:34:27;;;;;;;;;;;15.70;33.10;;;;;;5053557;28;19915;-72
2021/03/31 07:36:54;;;;;;;;;;;15.60;33.40;;;;;;5035648;28;20011;-73
2021/03/31 07:39:23;;;;;;;;;;;15.40;33.70;;;;;;5056855;28;20230;-73
2021/03/31 07:41:50;;;;;;;;;;;15.30;33.70;;;;;;5053249;28;20276;-72
2021/03/31 07:44:25;;;;;;;;;;;15.30;33.60;;;;;;5052727;28;20327;-72
2021/03/31 07:46:52;;;;;;;;;;;15.30;33.70;;;;;;5050096;28;20347;-72
2021/03/31 07:49:19;;;;;;;;;;;15.20;34.00;;;;;;5031884;28;19913;-72
2021/03/31 07:51:55;;;;;;;;;;;15.10;34.80;;;;;;5050172;28;20242;-72
2021/03/31 07:54:21;;;;;;;;;;;14.90;34.00;;;;;;5053698;28;19908;-72
2021/03/31 07:56:47;;;;;;;;;;;14.90;34.00;;;;;;5053621;28;19913;-72
2021/03/31 07:59:16;;;;;;;;;;;15.00;34.30;;;;;;5036140;28;19984;-72
2021/03/31 08:01:44;;;;;;;;;;;15.10;34.40;;;;;;5050130;28;19917;-72
2021/03/31 08:04:11;;;;;;;;;;;15.00;33.50;;;;;;5051600;28;19908;-72
2021/03/31 08:06:38;;;;;;;;;;;15.20;34.20;;;;;;5036110;28;19908;-72
2021/03/31 08:09:12;;;;;;;;;;;15.20;33.80;;;;;;5033721;28;19912;-72
2021/03/31 08:11:41;;;;;;;;;;;15.10;34.10;;;;;;5053684;28;19912;-72
2021/03/31 08:14:08;;;;;;;;;;;14.90;34.00;;;;;;5053957;28;19924;-72
2021/03/31 08:16:38;;;;;;;;;;;14.40;34.90;;;;;;5056148;28;19913;-72
2021/03/31 08:19:09;;;;;;;;;;;14.50;34.60;;;;;;5057416;28;19962;-72
2021/03/31 08:21:35;;;;;;;;;;;14.30;35.00;;;;;;5038972;28;19912;-72
2021/03/31 08:24:05;;;;;;;;;;;14.30;34.70;;;;;;5057403;28;19912;-72
2021/03/31 08:26:31;;;;;;;;;;;14.10;36.80;;;;;;5057409;28;19962;-72
2021/03/31 08:28:58;;;;;;;;;;;14.10;35.20;;;;;;5056749;28;19916;-72
2021/03/31 08:31:25;;;;;;;;;;;14.00;37.30;;;;;;5057564;28;19904;-72
2021/03/31 08:33:51;;;;;;;;;;;13.90;36.60;;;;;;5056756;28;19909;-72
2021/03/31 08:36:18;;;;;;;;;;;13.90;37.80;;;;;;5057280;28;19921;-71
2021/03/31 08:38:51;;;;;;;;;;;13.90;35.80;;;;;;5039840;28;19905;-71
2021/03/31 08:41:18;;;;;;;;;;;14.10;36.30;;;;;;5057229;28;19913;-73
2021/03/31 08:43:45;;;;;;;;;;;14.00;35.50;;;;;;5057019;28;19904;-72
2021/03/31 08:46:12;;;;;;;;;;;13.80;37.30;;;;;;5057175;28;19931;-72
2021/03/31 08:48:40;;;;;;;;;;;13.70;35.70;;;;;;5056621;28;20222;-72
2021/03/31 08:51:18;;;;;;;;;;;13.80;35.80;;;;;;5056952;28;19973;-71
2021/03/31 08:53:44;;;;;;;;;;;13.70;36.00;;;;;;5056484;28;20354;-72
2021/03/31 08:56:17;;;;;;;;;;;13.60;36.20;;;;;;5056643;28;19912;-70
2021/03/31 08:58:44;;;;;;;;;;;13.40;36.50;;;;;;5056844;28;19919;-72
2021/03/31 09:01:10;;;;;;;;;;;13.60;37.40;;;;;;5039185;28;19905;-72
2021/03/31 09:03:36;;;;;;;;;;;13.20;37.30;;;;;;5056555;28;19908;-73
2021/03/31 09:06:03;;;;;;;;;;;13.20;37.80;;;;;;5056827;28;19904;-72
2021/03/31 09:08:30;;;;;;;;;;;13.40;36.60;;;;;;5034967;28;21027;-72
2021/03/31 09:10:59;;;;;;;;;;;13.50;36.40;;;;;;5053771;28;19916;-72
2021/03/31 09:13:26;;;;;;;;;;;13.40;35.80;;;;;;5055148;28;20330;-71
2021/03/31 09:15:53;;;;;;;;;;;13.50;36.40;;;;;;5056384;28;19909;-71
2021/03/31 09:18:19;;;;;;;;;;;13.60;36.90;;;;;;5055932;28;19913;-72
2021/03/31 09:20:45;;;;;;;;;;;13.70;37.20;;;;;;5056329;28;19909;-72
2021/03/31 09:23:25;;;;;;;;;;;13.70;35.70;;;;;;5056407;28;19904;-72
2021/03/31 09:25:57;;;;;;;;;;;13.70;35.80;;;;;;5037175;28;19909;-72
2021/03/31 09:28:23;;;;;;;;;;;13.70;35.40;;;;;;5055873;28;19951;-72
2021/03/31 09:30:51;;;;;;;;;;;14.00;35.10;;;;;;5056131;28;19912;-73
2021/03/31 09:33:25;;;;;;;;;;;13.80;35.00;;;;;;5042985;28;19919;-73
2021/03/31 09:35:51;;;;;;;;;;;13.70;35.10;;;;;;5060436;28;19924;-72
2021/03/31 09:38:27;;;;;;;;;;;13.60;35.30;;;;;;5036893;28;19909;-72
2021/03/31 09:41:05;;;;;;;;;;;13.60;35.60;;;;;;5055534;28;20043;-72
2021/03/31 09:43:32;;;;;;;;;;;13.60;35.40;;;;;;5037967;28;19916;-71
2021/03/31 09:45:58;;;;;;;;;;;13.50;35.40;;;;;;5055800;28;19931;-72
2021/03/31 09:48:24;;;;;;;;;;;13.40;35.50;;;;;;5053824;28;19916;-71
2021/03/31 09:50:51;;;;;;;;;;;13.50;35.90;;;;;;5054391;28;19924;-71
2021/03/31 09:53:21;;;;;;;;;;;13.50;35.40;;;;;;5038703;28;19908;-72
2021/03/31 09:55:47;;;;;;;;;;;13.40;35.30;;;;;;5055222;28;19919;-71
2021/03/31 09:58:13;;;;;;;;;;;13.60;35.90;;;;;;5037794;28;19913;-71
2021/03/31 10:00:41;;;;;;;;;;;13.60;36.70;;;;;;5055883;28;19905;-72
2021/03/31 10:03:09;;;;;;;;;;;13.70;36.50;;;;;;5055322;28;19921;-71
2021/03/31 10:05:35;;;;;;;;;;;13.70;36.90;;;;;;5054513;28;19996;-71
2021/03/31 10:08:04;;;;;;;;;;;13.70;37.00;;;;;;5054980;28;19916;-71
2021/03/31 10:10:40;;;;;;;;;;;13.80;36.90;;;;;;5052206;28;19923;-71
2021/03/31 10:13:07;;;;;;;;;;;13.70;36.80;;;;;;5054728;28;19909;-71
2021/03/31 10:15:33;;;;;;;;;;;13.70;36.90;;;;;;5037394;28;19912;-71
2021/03/31 10:17:59;;;;;;;;;;;13.70;37.80;;;;;;5055358;28;20330;-71
2021/03/31 10:20:30;;;;;;;;;;;13.90;37.00;;;;;;5055245;28;19904;-71
2021/03/31 10:22:56;;;;;;;;;;;13.90;37.00;;;;;;5055076;28;19905;-71
2021/03/31 10:25:29;;;;;;;;;;;13.70;36.40;;;;;;5054206;28;19995;-71
2021/03/31 10:27:55;;;;;;;;;;;13.70;37.60;;;;;;5054917;28;19913;-71
2021/03/31 10:30:27;;;;;;;;;;;13.80;37.40;;;;;;5055170;28;20286;-70
2021/03/31 10:32:53;;;;;;;;;;;14.00;37.80;;;;;;5054969;28;19924;-71
2021/03/31 10:35:37;;;;;;;;;;;14.00;37.30;;;;;;5053918;28;19912;-71
2021/03/31 10:38:05;;;;;;;;;;;14.00;36.50;;;;;;5054073;28;20338;-71
2021/03/31 10:49:11;;;;;;;;;;;14.00;37.20;;;;;;5026560;28;19913;-71
2021/03/31 10:54:07;;;;;;;;;;;14.10;36.30;;;;;;5054125;28;19944;-71
2021/03/31 10:56:35;;;;;;;;;;;14.00;36.60;;;;;;5052951;28;19908;-71
2021/03/31 10:59:01;;;;;;;;;;;14.00;36.60;;;;;;5036282;28;19905;-71
2021/03/31 11:01:27;;;;;;;;;;;14.10;36.40;;;;;;5052851;28;20000;-71
2021/03/31 11:03:53;;;;;;;;;;;14.20;36.00;;;;;;5051118;28;19978;-72
2021/03/31 11:06:21;;;;;;;;;;;14.20;35.90;;;;;;5053603;28;20000;-72
2021/03/31 11:08:48;;;;;;;;;;;14.10;35.80;;;;;;5053658;28;19909;-72
2021/03/31 11:11:14;;;;;;;;;;;14.10;35.50;;;;;;5052989;28;19909;-72
2021/03/31 11:13:40;;;;;;;;;;;14.20;35.70;;;;;;5036339;28;20039;-72
2021/03/31 11:16:10;;;;;;;;;;;14.20;35.80;;;;;;5053597;28;19905;-72
2021/03/31 11:21:48;;;;;;;;;;;14.10;35.90;;;;;;5053851;28;19940;-72
2021/03/31 11:26:53;;;;;;;;;;;14.00;35.50;;;;;;4994819;28;19906;-73
2021/03/31 11:29:19;;;;;;;;;;;14.00;36.10;;;;;;4996162;28;20008;-73
2021/03/31 11:31:45;;;;;;;;;;;14.00;35.80;;;;;;5023111;28;20384;-72
2021/03/31 11:34:11;;;;;;;;;;;14.00;35.70;;;;;;5053761;28;20231;-72
2021/03/31 11:36:37;;;;;;;;;;;13.90;35.80;;;;;;4977650;28;1681812;-72
2021/03/31 11:39:03;;;;;;;;;;;13.80;35.90;;;;;;5043098;28;19909;-72
2021/03/31 11:41:29;;;;;;;;;;;13.60;35.80;;;;;;5036356;28;19947;-72
2021/03/31 11:43:55;;;;;;;;;;;13.50;36.20;;;;;;5053997;28;19955;-72
2021/03/31 11:46:21;;;;;;;;;;;13.40;36.70;;;;;;5053855;28;19920;-72
2021/03/31 11:48:47;;;;;;;;;;;13.40;36.30;;;;;;5053871;28;19912;-72
2021/03/31 11:51:13;;;;;;;;;;;13.40;36.50;;;;;;5056269;28;19904;-72
2021/03/31 11:53:39;;;;;;;;;;;13.50;36.20;;;;;;5057186;28;19905;-72
2021/03/31 11:56:06;;;;;;;;;;;13.30;36.00;;;;;;5057676;28;19934;-72
2021/03/31 11:58:32;;;;;;;;;;;13.30;36.00;;;;;;5060701;28;19904;-74
2021/03/31 12:00:58;;;;;;;;;;;13.30;36.30;;;;;;5044017;28;19905;-73
2021/03/31 12:03:24;;;;;;;;;;;13.00;36.80;;;;;;5061533;28;19930;-76
2021/03/31 12:05:51;;;;;;;;;;;13.00;36.60;;;;;;5061152;28;20357;-75
2021/03/31 12:08:17;;;;;;;;;;;12.90;37.00;;;;;;5057842;28;19913;-72
2021/03/31 12:10:43;;;;;;;;;;;13.00;36.80;;;;;;5056047;28;20306;-72
2021/03/31 12:13:10;;;;;;;;;;;12.80;36.50;;;;;;5057612;28;19905;-72
2021/03/31 12:15:36;;;;;;;;;;;12.80;36.90;;;;;;5057540;28;19908;-72
2021/03/31 12:18:02;;;;;;;;;;;12.80;36.70;;;;;;5056699;28;19908;-72
2021/03/31 12:20:28;;;;;;;;;;;12.80;37.40;;;;;;5057535;28;19904;-72
2021/03/31 12:22:54;;;;;;;;;;;13.00;37.20;;;;;;5057538;28;20227;-72
2021/03/31 12:25:21;;;;;;;;;;;13.10;36.90;;;;;;5057523;28;19904;-72
2021/03/31 12:27:50;;;;;;;;;;;13.10;36.60;;;;;;5039658;28;20236;-72
2021/03/31 12:30:16;;;;;;;;;;;13.10;36.50;;;;;;5057379;28;19913;-72
2021/03/31 12:32:42;;;;;;;;;;;13.00;36.50;;;;;;5057477;28;19962;-72
2021/03/31 12:35:09;;;;;;;;;;;13.10;36.70;;;;;;5057177;28;19917;-72
2021/03/31 12:37:35;;;;;;;;;;;13.20;36.70;;;;;;5057107;28;20003;-72
2021/03/31 12:40:01;;;;;;;;;;;13.10;36.80;;;;;;5057380;28;19905;-72
2021/03/31 12:42:27;;;;;;;;;;;13.00;36.40;;;;;;5057222;28;20699;-72
2021/03/31 12:44:53;;;;;;;;;;;12.80;37.20;;;;;;5057150;28;19991;-72
2021/03/31 12:47:21;;;;;;;;;;;12.80;37.20;;;;;;5057097;28;19958;-72
2021/03/31 12:49:49;;;;;;;;;;;12.90;37.00;;;;;;5057153;28;19912;-72
2021/03/31 12:52:19;;;;;;;;;;;12.80;36.70;;;;;;5055966;28;20434;-72
2021/03/31 12:57:18;;;;;;;;;;;13.00;37.10;;;;;;5056652;28;19915;-72
2021/03/31 12:59:44;;;;;;;;;;;13.00;36.70;;;;;;5056107;28;19951;-72
2021/03/31 13:02:10;;;;;;;;;;;13.00;36.70;;;;;;5056308;28;19909;-72
2021/03/31 13:04:36;;;;;;;;;;;13.00;36.50;;;;;;5057034;28;19943;-72
2021/03/31 13:07:03;;;;;;;;;;;13.00;36.60;;;;;;5056953;28;20338;-72
2021/03/31 13:09:29;;;;;;;;;;;13.00;36.40;;;;;;5056125;28;19923;-71
2021/03/31 13:11:57;;;;;;;;;;;13.10;36.20;;;;;;5056676;28;19905;-72
2021/03/31 13:15:09;;;;;;;;;;;13.10;36.30;;;;;;5056750;28;19904;-72
2021/03/31 13:30:55;;;;;;;;;;;12.80;37.30;;;;;;5057787;28;19923;-72
2021/03/31 13:33:28;;;;;;;;;;;12.50;37.10;;;;;;5055887;28;19905;-72
2021/03/31 13:39:01;;;;;;;;;;;12.40;36.90;;;;;;5055325;28;20361;-72
2021/03/31 13:41:30;;;;;;;;;;;12.20;37.10;;;;;;5054085;28;20030;-72
2021/03/31 13:43:56;;;;;;;;;;;12.20;37.50;;;;;;5055572;28;19956;-72
2021/03/31 13:46:23;;;;;;;;;;;12.40;37.30;;;;;;5055279;28;20017;-72
2021/03/31 13:52:03;;;;;;;;;;;12.20;37.00;;;;;;5025981;28;19917;-71
2021/03/31 13:54:42;;;;;;;;;;;12.30;37.50;;;;;;5052319;28;19916;-71
2021/03/31 13:57:12;;;;;;;;;;;12.40;37.60;;;;;;5051455;28;20005;-72
2021/03/31 13:59:38;;;;;;;;;;;12.30;37.30;;;;;;5051142;28;19913;-72
2021/03/31 14:02:04;;;;;;;;;;;12.10;37.50;;;;;;5052504;28;19991;-73
2021/03/31 14:04:30;;;;;;;;;;;12.00;37.80;;;;;;5037258;28;20025;-72
2021/03/31 14:06:56;;;;;;;;;;;11.90;37.90;;;;;;5036293;28;20017;-72
2021/03/31 14:09:22;;;;;;;;;;;12.10;38.70;;;;;;5053488;28;20242;-72
2021/03/31 14:11:51;;;;;;;;;;;12.20;38.70;;;;;;5051136;28;19909;-72
2021/03/31 14:14:18;;;;;;;;;;;12.40;38.40;;;;;;5054802;28;19974;-73
2021/03/31 14:17:26;;;;;;;;;;;12.40;38.20;;;;;;5037732;28;19962;-73
2021/03/31 14:19:41;;;;;;;;;;;12.40;38.60;;;;;;5045752;28;19909;-72
2021/03/31 14:22:07;;;;;;;;;;;12.40;38.20;;;;;;5037298;28;19974;-72
2021/03/31 14:24:35;;;;;;;;;;;12.50;38.10;;;;;;5052551;28;20021;-73
2021/03/31 14:27:01;;;;;;;;;;;12.50;38.10;;;;;;5035183;28;19913;-72
2021/03/31 14:29:27;;;;;;;;;;;12.40;38.00;;;;;;5053861;28;20365;-72
2021/03/31 14:31:53;;;;;;;;;;;12.30;37.70;;;;;;5032727;28;19924;-73
2021/03/31 14:34:20;;;;;;;;;;;12.30;38.20;;;;;;5053337;28;19909;-73
2021/03/31 14:36:46;;;;;;;;;;;12.20;38.10;;;;;;5054623;28;19913;-73
2021/03/31 14:39:12;;;;;;;;;;;12.20;38.70;;;;;;5052782;28;19913;-73
2021/03/31 14:41:39;;;;;;;;;;;12.50;39.00;;;;;;5054419;28;19932;-73
2021/03/31 14:44:05;;;;;;;;;;;12.70;38.70;;;;;;5054535;28;20320;-73
2021/03/31 14:46:31;;;;;;;;;;;12.60;38.40;;;;;;5053662;28;19909;-73
2021/03/31 14:48:57;;;;;;;;;;;12.60;38.60;;;;;;5053919;28;20357;-73
2021/03/31 14:51:26;;;;;;;;;;;12.70;38.50;;;;;;5053481;28;19909;-73
2021/03/31 15:01:55;;;;;;;;;;;12.80;38.80;;;;;;5055029;28;20054;-73
2021/03/31 15:04:21;;;;;;;;;;;12.90;38.90;;;;;;5051196;28;19916;-75
2021/03/31 15:06:47;;;;;;;;;;;12.90;38.70;;;;;;5054587;28;19913;-74
2021/03/31 15:09:13;;;;;;;;;;;12.90;38.90;;;;;;5053346;28;19913;-73
2021/03/31 15:11:39;;;;;;;;;;;13.00;38.80;;;;;;5053624;28;19912;-73